Winter Harbor, ME

10:01 PM EST on December 03, 2016 (GMT -0500)
WHUD | | Change Station

Elev 16 ft 44.39 °N, 68.09 °W | Updated 2 minutes ago

Scattered Clouds
Scattered Clouds
32.0 °F
Feels Like 27 °F
N
5.0
Wind Variable Wind from NW
Gusts 6.0 mph

Today
High -- | Low -- °F
--% Chance of Precip.
Yesterday
High -- | Low -- °F
Precip. -- in
Pressure 29.96 in
Visibility 10.0 miles
Clouds Scattered Clouds 8000 ft
Windchill 27 °F
Dew Point 29 °F
Humidity 87%
Rainfall 0.05 in
Snow Depth Not available.
6:51 AM 3:53 PM
Waxing Crescent, 19% visible
METAR KBHB 040256Z AUTO 33007KT 10SM SCT080 M01/M04 A2995 RMK AO2 SLP145 T10061039 51014 FZRANO
Pressure 29.96 in
Visibility 10.0 miles
Clouds Scattered Clouds 8000 ft
Windchill 27 °F
Dew Point 29 °F
Humidity 87%
Rainfall 0.05 in
Snow Depth Not available.
6:51 AM 3:53 PM
Waxing Crescent, 19% visible
METAR KBHB 040256Z AUTO 33007KT 10SM SCT080 M01/M04 A2995 RMK AO2 SLP145 T10061039 51014 FZRANO

10-Day Weather Forecast

Almanac

Astronomy

Dec. 03, 2016 Rise Set
Actual Time
Civil Twilight
Nautical Twilight
Astronomical Twilight
Moon
Length of Visible Light
Length of Day
Tomorrow will be .
, % of the Moon is Illuminated

Today's Extremes

State Highs State Lows

Community

WunderPhotos

Upload Photos

1,955,568 photos uploaded!

WunderBlog® & News

Nearby

Air Quality

  Air Quality AQ Index Pollutant
Not available.

Snow Depth

Station Depth Elevation

Earthquake Activity

City Distance Mag. Time & Date
Minimum magnitude displayed is 2.5.

Coastal Water Temperatures

Place Temperature

Stations

Nearby Weather Stations

Station Location Temp. Windchill Dew Point Humidity Wind Precip. Elev Updated Type
                   

Watches & Warnings

There are currently no watches in effect.